createdAt,value
2023-02-25T00:05:49.410Z,10.60
2023-02-25T00:08:52.409Z,11.90
2023-02-25T00:11:54.189Z,9.70
2023-02-25T00:14:55.811Z,9.30
2023-02-25T00:17:57.437Z,8.40
2023-02-25T00:20:59.598Z,9.00
2023-02-25T00:24:15.222Z,9.60
2023-02-25T00:27:17.550Z,9.20
2023-02-25T00:30:19.181Z,9.90
2023-02-25T00:36:24.957Z,8.90
2023-02-25T00:39:26.727Z,9.80
2023-02-25T00:45:29.936Z,9.40
2023-02-25T00:48:31.520Z,9.40
2023-02-25T00:51:33.317Z,9.30
2023-02-25T00:54:34.892Z,9.80
2023-02-25T01:00:51.356Z,9.20
2023-02-25T01:03:55.327Z,9.40
2023-02-25T01:06:57.545Z,10.30
2023-02-25T01:09:59.129Z,10.30
2023-02-25T01:16:02.351Z,9.30
2023-02-25T01:19:09.795Z,9.40
2023-02-25T01:22:11.854Z,9.20
2023-02-25T01:25:14.062Z,9.40
2023-02-25T01:28:15.703Z,8.70
2023-02-25T01:34:23.051Z,9.20
2023-02-25T01:37:25.045Z,9.90
2023-02-25T01:40:26.643Z,10.30
2023-02-25T01:43:29.164Z,10.40
2023-02-25T01:46:31.085Z,12.10
2023-02-25T01:49:39.113Z,11.20
2023-02-25T01:52:41.278Z,12.50
2023-02-25T01:55:43.247Z,12.20
2023-02-25T01:58:45.058Z,13.20
2023-02-25T02:01:47.020Z,14.50
2023-02-25T02:04:49.808Z,15.50
2023-02-25T02:07:51.384Z,15.70
2023-02-25T02:10:53.109Z,17.00
2023-02-25T02:17:28.962Z,18.20
2023-02-25T02:21:03.202Z,18.50
2023-02-25T02:24:42.964Z,19.60
2023-02-25T02:28:03.367Z,18.90
2023-02-25T02:31:16.663Z,17.80
2023-02-25T02:34:42.568Z,17.80
2023-02-25T02:37:57.088Z,15.60
2023-02-25T02:41:25.565Z,16.10
2023-02-25T02:44:31.192Z,17.10
2023-02-25T02:47:52.656Z,18.40
2023-02-25T02:50:58.315Z,14.70
2023-02-25T02:54:01.405Z,15.70
2023-02-25T02:57:04.117Z,14.20
2023-02-25T03:00:10.726Z,15.00
2023-02-25T03:03:29.103Z,16.60
2023-02-25T03:06:34.198Z,14.20
2023-02-25T03:09:40.234Z,15.00
2023-02-25T03:12:41.786Z,14.00
2023-02-25T03:15:44.433Z,14.90
2023-02-25T03:19:01.785Z,14.10
2023-02-25T03:22:13.214Z,15.00
2023-02-25T03:25:19.417Z,15.70
2023-02-25T03:28:30.524Z,14.20
2023-02-25T03:31:41.070Z,15.20
2023-02-25T03:34:46.649Z,14.40
2023-02-25T03:37:51.322Z,14.00
2023-02-25T03:40:53.885Z,15.00
2023-02-25T03:43:56.789Z,14.90
2023-02-25T03:47:00.022Z,15.40
2023-02-25T03:50:14.685Z,15.10
2023-02-25T03:53:16.495Z,14.50
2023-02-25T03:56:18.363Z,15.70
2023-02-25T04:02:27.015Z,13.40
2023-02-25T04:05:28.681Z,13.30
2023-02-25T04:11:32.707Z,20.10
2023-02-25T04:14:34.331Z,22.10
2023-02-25T04:17:36.388Z,20.30
2023-02-25T04:20:38.362Z,20.10
2023-02-25T04:23:39.914Z,19.90
2023-02-25T04:26:41.534Z,20.60
2023-02-25T04:35:46.870Z,16.80
2023-02-25T04:38:48.415Z,16.80
2023-02-25T04:41:50.219Z,17.40
2023-02-25T04:47:53.907Z,16.80
2023-02-25T04:50:55.490Z,18.40
2023-02-25T04:53:57.432Z,18.60
2023-02-25T04:56:59.052Z,19.30
2023-02-25T05:00:00.575Z,17.80
2023-02-25T05:03:02.103Z,18.70
2023-02-25T05:06:04.549Z,16.80
2023-02-25T05:09:06.958Z,16.10
2023-02-25T05:12:09.474Z,15.50
2023-02-25T05:21:25.849Z,18.10
2023-02-25T05:24:27.421Z,19.30
2023-02-25T05:27:29.065Z,21.40
2023-02-25T05:30:30.874Z,20.30
2023-02-25T05:33:32.508Z,21.50
2023-02-25T05:39:36.426Z,19.10
2023-02-25T05:42:38.021Z,10.30
2023-02-25T05:45:39.603Z,9.90
2023-02-25T05:48:42.693Z,8.50
2023-02-25T05:51:44.262Z,8.80
2023-02-25T05:54:45.869Z,8.40
2023-02-25T05:57:47.418Z,9.10
2023-02-25T06:00:49.429Z,9.50
2023-02-25T06:03:51.811Z,10.10
2023-02-25T06:06:53.469Z,12.30
2023-02-25T06:09:55.071Z,10.40
2023-02-25T06:12:56.798Z,9.60
2023-02-25T06:15:58.410Z,9.80
2023-02-25T06:19:00.917Z,10.20
2023-02-25T06:22:02.502Z,12.60
2023-02-25T06:25:04.357Z,12.60
2023-02-25T06:28:05.962Z,12.70
2023-02-25T06:34:13.191Z,15.10
2023-02-25T06:37:16.324Z,15.70
2023-02-25T06:40:18.346Z,13.70
2023-02-25T06:43:19.912Z,14.30
2023-02-25T06:46:24.419Z,14.20
2023-02-25T06:49:26.342Z,14.70
2023-02-25T06:52:28.618Z,16.40
2023-02-25T06:55:30.332Z,16.80
2023-02-25T07:01:33.937Z,20.10
2023-02-25T07:07:37.447Z,19.80
2023-02-25T07:10:39.049Z,18.50
2023-02-25T07:13:40.783Z,18.30
2023-02-25T07:19:44.047Z,19.90
2023-02-25T07:25:47.477Z,18.30
2023-02-25T07:28:49.201Z,18.30
2023-02-25T07:34:52.700Z,16.80
2023-02-25T07:40:55.754Z,16.40
2023-02-25T07:43:57.313Z,17.30
2023-02-25T07:50:00.347Z,14.00
2023-02-25T07:56:03.698Z,12.40
2023-02-25T07:59:05.465Z,12.30
2023-02-25T08:02:07.258Z,11.10
2023-02-25T08:05:09.140Z,10.80
2023-02-25T08:08:10.909Z,10.00
2023-02-25T08:11:14.447Z,10.40
2023-02-25T08:14:16.133Z,10.80
2023-02-25T08:17:17.963Z,8.50
2023-02-25T08:20:19.632Z,9.30
2023-02-25T08:23:21.190Z,8.30
2023-02-25T08:29:24.828Z,9.00
2023-02-25T08:32:26.694Z,7.90
2023-02-25T08:35:28.540Z,7.40
2023-02-25T08:38:30.075Z,7.80
2023-02-25T08:44:33.410Z,6.50
2023-02-25T08:47:34.916Z,6.20
2023-02-25T08:53:39.062Z,4.80
2023-02-25T08:56:41.014Z,4.80
2023-02-25T08:59:42.892Z,4.70
2023-02-25T09:05:59.812Z,4.60
2023-02-25T09:09:01.336Z,4.10
2023-02-25T09:12:02.941Z,4.20
2023-02-25T09:15:05.268Z,4.30
2023-02-25T09:18:07.158Z,4.70
2023-02-25T09:21:08.780Z,4.60
2023-02-25T09:27:12.240Z,3.70
2023-02-25T09:30:14.789Z,3.70
2023-02-25T09:33:16.410Z,3.60
2023-02-25T09:39:20.473Z,4.20
2023-02-25T09:45:25.146Z,6.50
2023-02-25T09:48:31.475Z,11.10
2023-02-25T09:51:37.131Z,5.70
2023-02-25T09:54:44.413Z,15.40
2023-02-25T09:57:56.204Z,9.30
2023-02-25T10:01:10.092Z,13.00
2023-02-25T10:04:38.022Z,13.30
2023-02-25T10:07:51.809Z,10.90
2023-02-25T10:11:07.032Z,23.50
2023-02-25T10:14:23.368Z,16.90
2023-02-25T10:17:44.167Z,11.50
2023-02-25T10:20:57.029Z,25.80
2023-02-25T10:24:14.103Z,21.40
2023-02-25T10:27:30.237Z,41.60
2023-02-25T10:31:05.897Z,23.70
2023-02-25T10:34:23.399Z,13.00
2023-02-25T10:37:29.163Z,6.10
2023-02-25T10:40:30.859Z,3.50
2023-02-25T10:43:34.166Z,6.10
2023-02-25T10:46:40.431Z,4.00
2023-02-25T10:50:23.104Z,4.10
2023-02-25T10:53:26.198Z,3.30
2023-02-25T10:56:46.137Z,3.90
2023-02-25T10:59:47.786Z,3.60
2023-02-25T11:02:51.770Z,3.60
2023-02-25T11:06:18.224Z,3.30
2023-02-25T11:09:19.728Z,3.40
2023-02-25T11:15:45.717Z,3.60
2023-02-25T11:18:53.041Z,3.20
2023-02-25T11:21:55.300Z,3.20
2023-02-25T11:25:01.824Z,5.10
2023-02-25T11:28:04.237Z,5.60
2023-02-25T11:31:16.978Z,36.20
2023-02-25T11:34:27.561Z,3.50
2023-02-25T11:37:43.300Z,3.20
2023-02-25T11:40:47.245Z,26.90
2023-02-25T11:47:16.623Z,3.90
2023-02-25T11:50:27.869Z,3.60
2023-02-25T11:53:38.754Z,3.90
2023-02-25T11:56:43.390Z,3.90
2023-02-25T12:00:05.121Z,4.30
2023-02-25T12:03:22.424Z,4.00
2023-02-25T12:06:32.778Z,3.70
2023-02-25T12:10:02.752Z,4.10
2023-02-25T12:13:53.019Z,4.40
2023-02-25T12:17:19.082Z,4.20
2023-02-25T12:20:20.790Z,4.00
2023-02-25T12:26:51.429Z,3.90
2023-02-25T12:30:27.548Z,4.90
2023-02-25T12:33:50.858Z,4.90
2023-02-25T12:37:03.121Z,4.40
2023-02-25T12:40:19.067Z,4.40
2023-02-25T12:43:26.830Z,4.30
2023-02-25T12:46:58.017Z,4.10
2023-02-25T12:50:25.870Z,4.20
2023-02-25T12:53:43.110Z,3.60
2023-02-25T12:56:53.948Z,3.90
2023-02-25T13:00:33.579Z,3.70
2023-02-25T13:03:54.411Z,3.90
2023-02-25T13:07:23.773Z,2.70
2023-02-25T13:10:37.410Z,2.80
2023-02-25T13:14:03.849Z,3.20
2023-02-25T13:17:25.686Z,3.30
2023-02-25T13:23:36.168Z,3.40
2023-02-25T13:27:12.447Z,3.60
2023-02-25T13:30:23.272Z,3.90
2023-02-25T13:33:46.879Z,3.90
2023-02-25T13:37:07.592Z,3.90
2023-02-25T13:40:38.614Z,4.10
2023-02-25T13:43:51.896Z,3.90
2023-02-25T13:47:10.370Z,4.50
2023-02-25T13:50:27.477Z,3.90
2023-02-25T13:53:44.567Z,4.10
2023-02-25T13:56:55.658Z,4.70
2023-02-25T14:00:00.314Z,5.40
2023-02-25T14:03:32.091Z,5.30
2023-02-25T14:06:56.649Z,5.00
2023-02-25T14:10:32.892Z,5.00
2023-02-25T14:13:58.120Z,4.90
2023-02-25T14:17:21.818Z,5.30
2023-02-25T14:20:42.576Z,4.90
2023-02-25T14:23:55.977Z,5.00
2023-02-25T14:27:28.833Z,5.70
2023-02-25T14:31:12.722Z,5.90
2023-02-25T14:34:31.533Z,3.10
2023-02-25T14:37:48.437Z,3.00
2023-02-25T14:40:59.940Z,2.80
2023-02-25T14:44:06.657Z,3.00
2023-02-25T14:47:19.413Z,3.10
2023-02-25T14:50:26.441Z,4.20
2023-02-25T14:53:50.469Z,4.50
2023-02-25T14:57:07.881Z,3.50
2023-02-25T15:00:32.802Z,3.20
2023-02-25T15:03:52.291Z,3.60
2023-02-25T15:07:09.330Z,4.00
2023-02-25T15:10:22.990Z,4.20
2023-02-25T15:13:37.350Z,4.90
2023-02-25T15:16:56.062Z,4.50
2023-02-25T15:20:27.029Z,4.30
2023-02-25T15:23:45.323Z,4.30
2023-02-25T15:26:47.781Z,4.40
2023-02-25T15:29:57.166Z,4.40
2023-02-25T15:33:26.874Z,4.30
2023-02-25T15:36:41.841Z,4.40
2023-02-25T15:39:43.422Z,4.60
2023-02-25T15:46:08.940Z,4.60
2023-02-25T15:49:16.933Z,4.70
2023-02-25T15:52:52.033Z,4.80
2023-02-25T15:56:13.616Z,4.50
2023-02-25T15:59:47.248Z,4.10
2023-02-25T16:02:53.227Z,4.90
2023-02-25T16:06:00.277Z,4.90
2023-02-25T16:09:12.522Z,4.10
2023-02-25T16:12:15.142Z,4.50
2023-02-25T16:15:31.119Z,4.90
2023-02-25T16:18:41.685Z,4.90
2023-02-25T16:21:48.122Z,4.60
2023-02-25T16:24:52.269Z,4.70
2023-02-25T16:28:04.536Z,5.00
2023-02-25T16:31:22.967Z,5.10
2023-02-25T16:34:33.189Z,4.60
2023-02-25T16:37:44.025Z,5.00
2023-02-25T16:40:45.778Z,5.30
2023-02-25T16:46:53.483Z,6.10
2023-02-25T16:49:56.757Z,7.10
2023-02-25T16:52:58.887Z,6.70
2023-02-25T16:56:01.138Z,7.10
2023-02-25T16:59:08.862Z,6.60
2023-02-25T17:02:16.431Z,6.30
2023-02-25T17:05:36.862Z,6.80
2023-02-25T17:08:44.239Z,6.50
2023-02-25T17:11:51.248Z,7.10
2023-02-25T17:14:53.835Z,7.40
2023-02-25T17:18:24.073Z,7.20
2023-02-25T17:21:45.588Z,6.00
2023-02-25T17:24:47.250Z,7.40
2023-02-25T17:27:49.833Z,7.00
2023-02-25T17:30:52.083Z,8.60
2023-02-25T17:33:56.847Z,7.70
2023-02-25T17:37:01.165Z,7.80
2023-02-25T17:40:06.337Z,7.90
2023-02-25T17:43:14.093Z,7.90
2023-02-25T17:46:34.987Z,7.50
2023-02-25T17:49:37.552Z,6.40
2023-02-25T17:52:39.664Z,6.90
2023-02-25T17:55:41.269Z,6.90
2023-02-25T17:58:44.181Z,6.80
2023-02-25T18:01:47.619Z,6.80
2023-02-25T18:04:50.186Z,6.50
2023-02-25T18:07:57.752Z,5.70
2023-02-25T18:11:04.365Z,5.50
2023-02-25T18:14:44.488Z,6.10
2023-02-25T18:17:54.308Z,5.40
2023-02-25T18:20:57.834Z,6.80
2023-02-25T18:24:01.203Z,6.20
2023-02-25T18:27:07.224Z,6.50
2023-02-25T18:30:11.777Z,7.20
2023-02-25T18:33:13.544Z,7.00
2023-02-25T18:36:25.604Z,7.00
2023-02-25T18:39:27.646Z,7.50
2023-02-25T18:42:29.381Z,7.00
2023-02-25T18:45:32.912Z,6.90
2023-02-25T18:48:35.682Z,6.80
2023-02-25T18:51:37.268Z,7.90
2023-02-25T18:54:38.808Z,7.30
2023-02-25T18:57:40.720Z,7.60
2023-02-25T19:00:43.862Z,7.50
2023-02-25T19:03:45.590Z,6.30
2023-02-25T19:09:49.115Z,7.50
2023-02-25T19:12:52.825Z,7.40
2023-02-25T19:15:54.495Z,7.50
2023-02-25T19:18:56.323Z,8.90
2023-02-25T19:21:58.979Z,10.50
2023-02-25T19:25:00.546Z,10.20
2023-02-25T19:28:02.697Z,10.60
2023-02-25T19:31:06.244Z,10.50
2023-02-25T19:34:08.069Z,11.60
2023-02-25T19:37:11.663Z,12.80
2023-02-25T19:40:15.982Z,12.20
2023-02-25T19:43:17.985Z,13.80
2023-02-25T19:46:19.553Z,14.10
2023-02-25T19:49:21.430Z,13.30
2023-02-25T19:52:23.137Z,13.30
2023-02-25T19:58:26.464Z,12.30
2023-02-25T20:01:28.098Z,11.50
2023-02-25T20:04:30.180Z,11.80
2023-02-25T20:07:31.889Z,11.60
2023-02-25T20:13:35.040Z,11.30
2023-02-25T20:19:38.517Z,10.00
2023-02-25T20:25:41.699Z,10.00
2023-02-25T20:28:43.311Z,9.30
2023-02-25T20:31:45.234Z,9.40
2023-02-25T20:34:47.084Z,8.70
2023-02-25T20:38:02.263Z,8.30
2023-02-25T20:41:04.036Z,8.80
2023-02-25T20:47:08.211Z,8.80
2023-02-25T20:50:10.533Z,9.30
2023-02-25T20:53:12.209Z,10.00
2023-02-25T20:56:18.033Z,10.40
2023-02-25T20:59:19.573Z,10.40
2023-02-25T21:02:21.740Z,11.10
2023-02-25T21:05:23.356Z,11.10
2023-02-25T21:08:25.257Z,11.30
2023-02-25T21:11:27.128Z,11.50
2023-02-25T21:14:30.631Z,11.10
2023-02-25T21:17:32.218Z,11.50
2023-02-25T21:20:33.769Z,11.60
2023-02-25T21:23:36.891Z,12.00
2023-02-25T21:26:38.783Z,12.60
2023-02-25T21:29:40.339Z,14.90
2023-02-25T21:32:41.994Z,14.20
2023-02-25T21:35:45.313Z,14.70
2023-02-25T21:38:53.398Z,15.90
2023-02-25T21:41:55.002Z,15.20
2023-02-25T21:47:58.189Z,16.70
2023-02-25T21:51:00.220Z,16.20
2023-02-25T21:54:02.454Z,16.00
2023-02-25T21:57:04.011Z,15.10
2023-02-25T22:00:06.173Z,16.00
2023-02-25T22:03:07.929Z,14.90
2023-02-25T22:09:11.173Z,16.30
2023-02-25T22:12:13.327Z,16.70
2023-02-25T22:18:16.611Z,16.60
2023-02-25T22:21:21.127Z,16.80
2023-02-25T22:24:22.766Z,18.10
2023-02-25T22:27:24.461Z,18.30
2023-02-25T22:30:25.990Z,18.30
2023-02-25T22:39:31.370Z,20.60
2023-02-25T22:42:32.946Z,21.70
2023-02-25T22:45:34.631Z,22.60
2023-02-25T22:48:37.858Z,21.70
2023-02-25T22:51:44.216Z,22.90
2023-02-25T22:54:46.169Z,22.60
2023-02-25T22:57:47.921Z,23.30
2023-02-25T23:00:51.130Z,24.40
2023-02-25T23:03:54.646Z,25.40
2023-02-25T23:06:56.268Z,26.00
2023-02-25T23:09:57.832Z,26.00
2023-02-25T23:13:00.951Z,25.50
2023-02-25T23:16:03.191Z,26.40
2023-02-25T23:19:05.147Z,22.80
2023-02-25T23:22:06.755Z,24.40
2023-02-25T23:25:08.824Z,24.60
2023-02-25T23:28:10.453Z,25.10
2023-02-25T23:34:23.390Z,23.70
2023-02-25T23:37:25.330Z,25.30
2023-02-25T23:40:27.040Z,24.60
2023-02-25T23:43:28.979Z,24.00
2023-02-25T23:46:32.410Z,25.00
2023-02-25T23:49:34.047Z,24.20
2023-02-25T23:52:35.883Z,25.80
2023-02-25T23:55:37.754Z,25.30
2023-02-25T23:58:39.542Z,25.50
